createdAt,value
2022-09-06T00:00:52.756Z,62.32
2022-09-06T00:01:52.767Z,62.82
2022-09-06T00:02:52.804Z,62.85
2022-09-06T00:03:52.785Z,62.85
2022-09-06T00:04:52.707Z,63.05
2022-09-06T00:05:52.686Z,63.15
2022-09-06T00:06:52.669Z,62.65
2022-09-06T00:07:52.686Z,62.95
2022-09-06T00:08:52.647Z,62.65
2022-09-06T00:09:52.636Z,62.85
2022-09-06T00:10:52.626Z,63.05
2022-09-06T00:11:52.606Z,63.25
2022-09-06T00:12:52.597Z,63.25
2022-09-06T00:13:52.586Z,63.25
2022-09-06T00:14:52.568Z,63.05
2022-09-06T00:15:52.637Z,63.15
2022-09-06T00:16:52.537Z,63.35
2022-09-06T00:17:52.537Z,63.25
2022-09-06T00:18:52.519Z,63.48
2022-09-06T00:19:52.503Z,63.18
2022-09-06T00:20:52.486Z,63.39
2022-09-06T00:21:52.487Z,63.08
2022-09-06T00:22:52.457Z,62.98
2022-09-06T00:23:52.448Z,63.39
2022-09-06T00:24:52.436Z,63.68
2022-09-06T00:25:52.425Z,63.18
2022-09-06T00:26:52.416Z,63.48
2022-09-06T00:27:52.399Z,63.59
2022-09-06T00:28:52.377Z,63.48
2022-09-06T00:29:52.379Z,63.18
2022-09-06T00:30:52.372Z,63.28
2022-09-06T00:31:52.348Z,63.48
2022-09-06T00:32:52.325Z,63.28
2022-09-06T00:33:52.317Z,63.79
2022-09-06T00:34:52.297Z,63.59
2022-09-06T00:35:52.296Z,63.99
2022-09-06T00:36:52.285Z,63.71
2022-09-06T00:37:52.258Z,63.71
2022-09-06T00:38:52.245Z,63.92
2022-09-06T00:39:52.290Z,63.42
2022-09-06T00:40:52.216Z,63.51
2022-09-06T00:41:52.217Z,63.71
2022-09-06T00:42:52.196Z,63.42
2022-09-06T00:43:52.176Z,63.42
2022-09-06T00:44:52.156Z,63.62
2022-09-06T00:45:52.177Z,63.92
2022-09-06T00:46:52.145Z,63.62
2022-09-06T00:47:52.126Z,63.71
2022-09-06T00:48:52.108Z,63.82
2022-09-06T00:49:52.097Z,63.51
2022-09-06T00:50:52.077Z,63.51
2022-09-06T00:51:52.086Z,63.62
2022-09-06T00:52:52.050Z,63.51
2022-09-06T00:53:52.036Z,63.42
2022-09-06T00:54:52.027Z,63.42
2022-09-06T00:55:52.016Z,63.62
2022-09-06T00:56:52.007Z,63.62
2022-09-06T00:57:51.997Z,63.62
2022-09-06T00:58:51.979Z,63.21
2022-09-06T00:59:51.958Z,62.91
2022-09-06T01:00:51.947Z,62.81
2022-09-06T01:01:52.044Z,62.94
2022-09-06T01:02:52.003Z,63.04
2022-09-06T01:03:51.913Z,63.24
2022-09-06T01:04:51.889Z,63.14
2022-09-06T01:05:54.547Z,62.84
2022-09-06T01:06:51.877Z,63.14
2022-09-06T01:07:51.859Z,63.24
2022-09-06T01:08:51.837Z,63.34
2022-09-06T01:09:51.830Z,63.14
2022-09-06T01:10:51.818Z,63.45
2022-09-06T01:11:51.827Z,63.45
2022-09-06T01:12:51.796Z,63.95
2022-09-06T01:13:51.779Z,63.45
2022-09-06T01:14:51.765Z,63.54
2022-09-06T01:15:51.799Z,63.45
2022-09-06T01:16:51.746Z,63.65
2022-09-06T01:17:51.716Z,63.85
2022-09-06T01:18:51.706Z,63.95
2022-09-06T01:19:51.707Z,63.85
2022-09-06T01:20:51.676Z,63.98
2022-09-06T01:21:51.667Z,63.67
2022-09-06T01:22:51.656Z,63.98
2022-09-06T01:23:51.638Z,63.67
2022-09-06T01:24:51.626Z,63.98
2022-09-06T01:25:51.606Z,63.87
2022-09-06T01:26:51.616Z,63.87
2022-09-06T01:27:51.577Z,64.18
2022-09-06T01:28:51.576Z,64.18
2022-09-06T01:29:51.566Z,63.87
2022-09-06T01:30:51.588Z,63.98
2022-09-06T01:31:51.538Z,63.78
2022-09-06T01:32:51.516Z,63.98
2022-09-06T01:33:51.503Z,63.78
2022-09-06T01:34:51.496Z,63.78
2022-09-06T01:35:51.477Z,63.78
2022-09-06T01:37:08.831Z,63.98
2022-09-06T01:37:52.448Z,63.98
2022-09-06T01:38:51.446Z,63.87
2022-09-06T01:39:51.485Z,64.38
2022-09-06T01:40:51.406Z,64.28
2022-09-06T01:41:51.407Z,63.98
2022-09-06T01:42:51.389Z,63.98
2022-09-06T01:43:51.369Z,63.78
2022-09-06T01:44:51.366Z,63.98
2022-09-06T01:45:51.414Z,64.07
2022-09-06T01:46:51.367Z,64.11
2022-09-06T01:47:51.316Z,64.01
2022-09-06T01:48:51.306Z,63.90
2022-09-06T01:49:51.286Z,64.01
2022-09-06T01:50:51.276Z,64.01
2022-09-06T01:51:51.276Z,64.01
2022-09-06T01:52:51.249Z,64.11
2022-09-06T01:53:51.234Z,63.81
2022-09-06T01:54:51.235Z,64.11
2022-09-06T01:55:51.216Z,63.90
2022-09-06T01:56:51.206Z,64.11
2022-09-06T01:57:51.183Z,63.81
2022-09-06T01:58:51.168Z,63.70
2022-09-06T01:59:51.156Z,63.60
2022-09-06T02:00:51.147Z,63.50
2022-09-06T02:01:51.193Z,63.81
2022-09-06T02:02:51.155Z,63.70
2022-09-06T02:03:51.096Z,63.60
2022-09-06T02:04:51.096Z,63.60
2022-09-06T02:05:51.076Z,63.60
2022-09-06T02:06:51.076Z,63.60
2022-09-06T02:07:51.048Z,63.60
2022-09-06T02:08:51.038Z,63.81
2022-09-06T02:09:51.016Z,63.60
2022-09-06T02:10:51.019Z,63.50
2022-09-06T02:11:51.006Z,63.50
2022-09-06T02:12:50.977Z,63.60
2022-09-06T02:13:50.966Z,63.50
2022-09-06T02:14:50.957Z,63.50
2022-09-06T02:15:50.994Z,63.81
2022-09-06T02:16:50.990Z,63.73
2022-09-06T02:17:50.919Z,63.73
2022-09-06T02:18:50.906Z,63.64
2022-09-06T02:19:50.888Z,63.43
2022-09-06T02:20:50.890Z,63.43
2022-09-06T02:21:50.866Z,63.33
2022-09-06T02:22:50.856Z,63.23
2022-09-06T02:23:50.829Z,63.43
2022-09-06T02:24:50.823Z,63.23
2022-09-06T02:25:50.807Z,63.64
2022-09-06T02:26:50.806Z,63.43
2022-09-06T02:27:50.776Z,63.53
2022-09-06T02:28:50.767Z,63.73
2022-09-06T02:29:50.756Z,63.64
2022-09-06T02:30:50.817Z,63.23
2022-09-06T02:31:50.735Z,63.53
2022-09-06T02:32:50.721Z,63.43
2022-09-06T02:33:52.074Z,63.13
2022-09-06T02:34:50.686Z,63.33
2022-09-06T02:35:50.675Z,63.23
2022-09-06T02:36:50.674Z,63.43
2022-09-06T02:37:50.645Z,63.43
2022-09-06T02:38:50.638Z,63.53
2022-09-06T02:39:50.664Z,63.13
2022-09-06T02:40:50.607Z,63.33
2022-09-06T02:41:50.603Z,63.33
2022-09-06T02:42:50.588Z,63.43
2022-09-06T02:43:50.566Z,63.33
2022-09-06T02:44:50.555Z,63.43
2022-09-06T02:45:50.557Z,63.26
2022-09-06T02:46:53.823Z,63.46
2022-09-06T02:47:51.515Z,63.46
2022-09-06T02:48:50.506Z,63.36
2022-09-06T02:49:50.494Z,63.46
2022-09-06T02:50:50.478Z,63.46
2022-09-06T02:51:50.475Z,63.26
2022-09-06T02:52:50.447Z,63.26
2022-09-06T02:53:50.440Z,63.06
2022-09-06T02:54:50.418Z,63.36
2022-09-06T02:55:50.406Z,63.46
2022-09-06T02:56:52.419Z,63.16
2022-09-06T02:57:50.375Z,63.06
2022-09-06T02:58:50.366Z,63.26
2022-09-06T02:59:50.374Z,63.36
2022-09-06T03:00:50.407Z,63.26
2022-09-06T03:01:50.342Z,63.16
2022-09-06T03:02:50.415Z,62.85
2022-09-06T03:03:50.306Z,62.85
2022-09-06T03:04:50.286Z,63.06
2022-09-06T03:05:50.278Z,62.96
2022-09-06T03:06:50.266Z,62.85
2022-09-06T03:07:50.244Z,62.85
2022-09-06T03:08:50.236Z,62.85
2022-09-06T03:09:50.216Z,62.76
2022-09-06T03:10:50.218Z,62.76
2022-09-06T03:11:50.196Z,62.85
2022-09-06T03:12:50.198Z,63.06
2022-09-06T03:13:50.163Z,62.76
2022-09-06T03:14:54.233Z,62.96
2022-09-06T03:15:50.135Z,62.85
2022-09-06T03:16:50.161Z,62.99
2022-09-06T03:17:50.106Z,62.79
2022-09-06T03:18:50.098Z,63.19
2022-09-06T03:19:50.086Z,63.19
2022-09-06T03:20:50.075Z,63.19
2022-09-06T03:21:50.065Z,62.88
2022-09-06T03:22:50.045Z,62.79
2022-09-06T03:23:50.025Z,62.88
2022-09-06T03:24:50.018Z,62.79
2022-09-06T03:25:50.008Z,62.79
2022-09-06T03:26:49.996Z,62.79
2022-09-06T03:27:49.976Z,62.88
2022-09-06T03:28:49.976Z,62.88
2022-09-06T03:29:49.945Z,63.09
2022-09-06T03:30:49.996Z,63.09
2022-09-06T03:31:49.955Z,62.88
2022-09-06T03:32:49.955Z,63.09
2022-09-06T03:33:49.925Z,63.29
2022-09-06T03:34:49.934Z,63.19
2022-09-06T03:35:49.905Z,63.19
2022-09-06T03:36:49.905Z,62.88
2022-09-06T03:37:49.836Z,63.19
2022-09-06T03:38:49.835Z,63.09
2022-09-06T03:39:49.879Z,63.19
2022-09-06T03:40:49.805Z,63.02
2022-09-06T03:41:49.795Z,62.92
2022-09-06T03:42:49.777Z,63.52
2022-09-06T03:43:49.766Z,63.52
2022-09-06T03:44:49.755Z,63.22
2022-09-06T03:45:49.785Z,63.22
2022-09-06T03:46:49.735Z,63.42
2022-09-06T03:47:49.706Z,63.52
2022-09-06T03:48:49.695Z,63.22
2022-09-06T03:49:49.675Z,63.02
2022-09-06T03:50:49.683Z,62.92
2022-09-06T03:51:49.659Z,63.22
2022-09-06T03:52:49.645Z,63.12
2022-09-06T03:53:49.626Z,63.32
2022-09-06T03:54:49.615Z,63.12
2022-09-06T03:55:49.595Z,63.22
2022-09-06T03:56:49.595Z,63.02
2022-09-06T03:57:49.575Z,63.22
2022-09-06T03:58:49.566Z,63.02
2022-09-06T03:59:49.546Z,63.12
2022-09-06T04:00:49.587Z,63.22
2022-09-06T04:01:49.530Z,63.12
2022-09-06T04:02:49.506Z,63.12
2022-09-06T04:03:49.493Z,63.32
2022-09-06T04:04:49.483Z,63.12
2022-09-06T04:05:49.473Z,63.02
2022-09-06T04:06:49.470Z,63.02
2022-09-06T04:07:49.444Z,63.22
2022-09-06T04:08:49.426Z,63.02
2022-09-06T04:09:49.407Z,62.82
2022-09-06T04:10:49.405Z,63.05
2022-09-06T04:11:49.395Z,62.95
2022-09-06T04:12:49.384Z,62.85
2022-09-06T04:13:49.357Z,62.95
2022-09-06T04:14:49.347Z,62.95
2022-09-06T04:15:49.338Z,62.85
2022-09-06T04:16:49.370Z,63.05
2022-09-06T04:17:49.304Z,62.95
2022-09-06T04:18:49.295Z,62.95
2022-09-06T04:19:49.280Z,62.95
2022-09-06T04:20:49.296Z,62.95
2022-09-06T04:21:49.264Z,62.85
2022-09-06T04:22:49.245Z,63.05
2022-09-06T04:23:49.224Z,62.85
2022-09-06T04:24:49.215Z,62.85
2022-09-06T04:25:49.196Z,62.74
2022-09-06T04:26:49.201Z,62.74
2022-09-06T04:27:49.164Z,62.85
2022-09-06T04:28:49.164Z,62.74
2022-09-06T04:29:49.144Z,62.64
2022-09-06T04:30:49.135Z,62.85
2022-09-06T04:31:49.193Z,62.64
2022-09-06T04:32:49.114Z,62.85
2022-09-06T04:33:49.094Z,62.44
2022-09-06T04:34:49.076Z,62.85
2022-09-06T04:35:49.090Z,62.57
2022-09-06T04:36:49.066Z,62.77
2022-09-06T04:37:49.038Z,62.77
2022-09-06T04:38:49.026Z,62.77
2022-09-06T04:39:49.079Z,62.87
2022-09-06T04:40:49.008Z,62.67
2022-09-06T04:41:48.996Z,62.57
2022-09-06T04:42:48.974Z,62.67
2022-09-06T04:43:48.956Z,62.67
2022-09-06T04:44:48.945Z,62.67
2022-09-06T04:45:48.975Z,62.47
2022-09-06T04:46:48.940Z,62.57
2022-09-06T04:47:48.903Z,62.67
2022-09-06T04:48:48.893Z,62.47
2022-09-06T04:49:48.874Z,62.57
2022-09-06T04:50:48.864Z,62.47
2022-09-06T04:51:48.864Z,62.47
2022-09-06T04:52:48.878Z,62.67
2022-09-06T04:53:48.822Z,62.67
2022-09-06T04:54:48.813Z,62.57
2022-09-06T04:55:48.802Z,62.47
2022-09-06T04:56:48.785Z,62.57
2022-09-06T04:57:51.240Z,62.57
2022-09-06T04:58:48.762Z,62.47
2022-09-06T04:59:48.741Z,62.67
2022-09-06T05:00:48.808Z,62.47
2022-09-06T05:01:48.773Z,62.57
2022-09-06T05:02:48.718Z,62.57
2022-09-06T05:03:48.684Z,62.67
2022-09-06T05:04:48.685Z,62.77
2022-09-06T05:05:48.664Z,62.77
2022-09-06T05:06:48.652Z,62.77
2022-09-06T05:07:48.654Z,62.57
2022-09-06T05:08:48.623Z,62.77
2022-09-06T05:09:48.603Z,62.87
2022-09-06T05:10:48.604Z,62.98
2022-09-06T05:11:48.589Z,62.67
2022-09-06T05:12:48.584Z,62.77
2022-09-06T05:13:48.552Z,62.67
2022-09-06T05:14:48.548Z,62.98
2022-09-06T05:15:48.524Z,62.87
2022-09-06T05:16:48.558Z,62.87
2022-09-06T05:17:48.507Z,62.77
2022-09-06T05:18:48.494Z,62.77
2022-09-06T05:19:48.489Z,62.87
2022-09-06T05:20:48.467Z,62.87
2022-09-06T05:21:48.443Z,62.77
2022-09-06T05:22:49.343Z,62.77
2022-09-06T05:23:49.637Z,62.87
2022-09-06T05:24:48.539Z,62.87
2022-09-06T05:25:48.511Z,62.77
2022-09-06T05:26:48.458Z,62.57
2022-09-06T05:27:48.509Z,62.57
2022-09-06T05:28:48.354Z,62.57
2022-09-06T05:29:48.334Z,62.57
2022-09-06T05:30:48.335Z,62.47
2022-09-06T05:31:48.360Z,62.37
2022-09-06T05:32:48.314Z,62.37
2022-09-06T05:33:48.284Z,62.37
2022-09-06T05:34:48.274Z,62.37
2022-09-06T05:35:48.291Z,62.47
2022-09-06T05:36:48.244Z,62.37
2022-09-06T05:37:48.245Z,62.37
2022-09-06T05:38:48.223Z,62.37
2022-09-06T05:39:48.267Z,62.27
2022-09-06T05:40:48.193Z,62.27
2022-09-06T05:41:48.186Z,62.07
2022-09-06T05:42:48.183Z,62.16
2022-09-06T05:43:48.171Z,62.16
2022-09-06T05:44:48.166Z,62.16
2022-09-06T05:45:48.174Z,62.16
2022-09-06T05:46:48.112Z,62.16
2022-09-06T05:47:48.113Z,62.16
2022-09-06T05:48:48.093Z,62.07
2022-09-06T05:49:48.084Z,62.07
2022-09-06T05:50:48.121Z,62.07
2022-09-06T05:51:48.083Z,62.07
2022-09-06T05:52:48.043Z,61.96
2022-09-06T05:53:48.156Z,61.96
2022-09-06T05:54:48.001Z,62.07
2022-09-06T05:55:48.013Z,61.96
2022-09-06T05:56:47.992Z,62.07
2022-09-06T05:57:47.973Z,61.96
2022-09-06T05:58:47.982Z,61.96
2022-09-06T05:59:47.934Z,61.87
2022-09-06T06:00:47.981Z,61.96
2022-09-06T06:01:47.980Z,61.96
2022-09-06T06:02:48.042Z,61.87
2022-09-06T06:03:47.891Z,61.96
2022-09-06T06:04:47.875Z,61.66
2022-09-06T06:05:47.865Z,61.76
2022-09-06T06:06:47.874Z,61.76
2022-09-06T06:07:47.853Z,61.73
2022-09-06T06:08:47.814Z,61.56
2022-09-06T06:09:47.802Z,61.53
2022-09-06T06:10:47.794Z,61.53
2022-09-06T06:11:47.782Z,61.53
2022-09-06T06:12:47.772Z,61.53
2022-09-06T06:13:47.757Z,61.43
2022-09-06T06:14:47.764Z,61.46
2022-09-06T06:15:47.724Z,61.33
2022-09-06T06:16:47.745Z,61.33
2022-09-06T06:17:47.712Z,61.33
2022-09-06T06:18:51.733Z,61.23
2022-09-06T06:19:47.673Z,61.13
2022-09-06T06:20:47.653Z,61.13
2022-09-06T06:21:47.653Z,61.03
2022-09-06T06:22:47.632Z,60.82
2022-09-06T06:23:47.653Z,60.72
2022-09-06T06:24:47.652Z,60.72
2022-09-06T06:25:47.602Z,60.72
2022-09-06T06:26:47.602Z,60.72
2022-09-06T06:27:47.589Z,60.62
2022-09-06T06:28:47.551Z,60.49
2022-09-06T06:29:47.532Z,60.39
2022-09-06T06:30:47.522Z,60.29
2022-09-06T06:31:47.603Z,60.29
2022-09-06T06:32:47.532Z,60.29
2022-09-06T06:33:47.483Z,60.19
2022-09-06T06:34:47.463Z,60.19
2022-09-06T06:35:47.463Z,60.09
2022-09-06T06:36:47.442Z,60.29
2022-09-06T06:37:47.442Z,60.09
2022-09-06T06:38:47.434Z,59.99
2022-09-06T06:39:47.443Z,59.89
2022-09-06T06:40:47.427Z,59.89
2022-09-06T06:41:47.373Z,59.78
2022-09-06T06:42:47.371Z,59.78
2022-09-06T06:43:47.352Z,59.69
2022-09-06T06:44:47.335Z,59.66
2022-09-06T06:45:47.373Z,59.76
2022-09-06T06:46:47.312Z,59.66
2022-09-06T06:47:47.313Z,59.45
2022-09-06T06:48:49.475Z,59.35
2022-09-06T06:49:48.312Z,59.35
2022-09-06T06:50:47.253Z,59.35
2022-09-06T06:51:47.252Z,59.25
2022-09-06T06:52:47.231Z,59.35
2022-09-06T06:53:47.226Z,59.25
2022-09-06T06:54:47.202Z,59.12
2022-09-06T06:55:47.252Z,59.12
2022-09-06T06:56:47.182Z,59.02
2022-09-06T06:57:47.176Z,59.02
2022-09-06T06:58:47.152Z,59.12
2022-09-06T06:59:47.142Z,59.12
2022-09-06T07:00:47.198Z,58.92
2022-09-06T07:01:47.306Z,58.82
2022-09-06T07:02:47.092Z,58.82
2022-09-06T07:03:47.081Z,58.82
2022-09-06T07:04:47.063Z,58.92
2022-09-06T07:07:48.031Z,58.80
2022-09-06T07:08:47.013Z,58.59
2022-09-06T07:10:48.012Z,58.16
2022-09-06T07:11:46.985Z,58.16
2022-09-06T07:12:46.961Z,58.06
2022-09-06T07:13:46.963Z,57.86
2022-09-06T07:14:46.950Z,57.86
2022-09-06T07:15:46.930Z,57.86
2022-09-06T07:16:46.947Z,57.96
2022-09-06T07:17:46.893Z,57.96
2022-09-06T07:18:46.881Z,58.06
2022-09-06T07:21:47.852Z,57.86
2022-09-06T07:22:46.822Z,57.86
2022-09-06T07:24:47.810Z,57.76
2022-09-06T07:25:46.792Z,57.56
2022-09-06T07:27:48.768Z,57.76
2022-09-06T07:28:46.741Z,57.76
2022-09-06T07:29:46.742Z,57.76
2022-09-06T07:30:46.722Z,57.86
2022-09-06T07:32:47.696Z,57.76
2022-09-06T07:33:46.697Z,57.76
2022-09-06T07:34:46.673Z,57.86
2022-09-06T07:35:46.678Z,57.86
2022-09-06T07:36:46.672Z,57.86
2022-09-06T07:37:46.632Z,57.86
2022-09-06T07:38:46.613Z,57.96
2022-09-06T07:39:46.698Z,57.86
2022-09-06T07:40:46.589Z,57.96
2022-09-06T07:41:46.582Z,58.06
2022-09-06T07:42:46.562Z,57.96
2022-09-06T07:43:46.552Z,57.96
2022-09-06T07:44:46.533Z,57.96
2022-09-06T07:45:46.533Z,57.96
2022-09-06T07:46:46.541Z,57.96
2022-09-06T07:48:01.890Z,57.86
2022-09-06T07:48:47.483Z,57.86
2022-09-06T07:50:48.813Z,57.86
2022-09-06T07:51:46.452Z,57.86
2022-09-06T07:53:47.413Z,57.96
2022-09-06T07:54:46.392Z,58.06
2022-09-06T07:55:46.402Z,57.96
2022-09-06T07:56:46.384Z,57.96
2022-09-06T07:57:46.372Z,57.96
2022-09-06T07:58:46.352Z,57.83
2022-09-06T07:59:46.334Z,57.83
2022-09-06T08:00:46.361Z,57.83
2022-09-06T08:01:46.395Z,57.73
2022-09-06T08:02:46.294Z,57.83
2022-09-06T08:03:46.282Z,57.43
2022-09-06T08:04:51.047Z,57.53
2022-09-06T08:07:47.467Z,57.32
2022-09-06T08:09:01.654Z,57.43
2022-09-06T08:09:47.203Z,57.53
2022-09-06T08:10:46.183Z,57.32
2022-09-06T08:11:46.182Z,57.43
2022-09-06T08:12:46.153Z,57.40
2022-09-06T08:13:46.154Z,57.10
2022-09-06T08:14:46.142Z,56.80
2022-09-06T08:15:46.123Z,56.90
2022-09-06T08:16:46.113Z,56.90
2022-09-06T08:17:46.093Z,56.80
2022-09-06T08:18:46.082Z,56.80
2022-09-06T08:19:46.074Z,57.00
2022-09-06T08:20:46.063Z,57.00
2022-09-06T08:21:46.088Z,56.80
2022-09-06T08:22:46.031Z,56.70
2022-09-06T08:23:46.052Z,56.70
2022-09-06T08:24:46.002Z,56.80
2022-09-06T08:25:46.063Z,56.77
2022-09-06T08:26:45.984Z,56.67
2022-09-06T08:27:45.963Z,56.67
2022-09-06T08:28:45.947Z,56.67
2022-09-06T08:29:45.933Z,56.54
2022-09-06T08:30:45.923Z,56.04
2022-09-06T08:31:45.962Z,55.61
2022-09-06T08:32:45.902Z,55.00
2022-09-06T08:33:45.887Z,54.80
2022-09-06T08:34:45.864Z,54.88
2022-09-06T08:35:45.854Z,54.98
2022-09-06T08:36:45.852Z,54.85
2022-09-06T08:37:45.834Z,54.72
2022-09-06T08:38:45.823Z,54.40
2022-09-06T08:39:45.848Z,53.70
2022-09-06T08:40:45.784Z,53.20
2022-09-06T08:41:45.784Z,52.80
2022-09-06T08:42:45.762Z,53.09
2022-09-06T08:43:45.753Z,53.09
2022-09-06T08:45:01.025Z,52.80
2022-09-06T08:45:46.723Z,52.89
2022-09-06T08:46:45.747Z,53.09
2022-09-06T08:47:45.702Z,53.09
2022-09-06T08:48:45.689Z,53.00
2022-09-06T08:49:45.664Z,52.80
2022-09-06T08:50:45.671Z,53.00
2022-09-06T08:51:45.654Z,52.87
2022-09-06T08:53:00.132Z,52.57
2022-09-06T08:53:46.902Z,52.77
2022-09-06T08:54:45.604Z,52.77
2022-09-06T08:55:45.595Z,52.84
2022-09-06T08:56:45.584Z,52.55
2022-09-06T08:57:45.564Z,52.42
2022-09-06T08:58:45.554Z,52.22
2022-09-06T08:59:45.551Z,52.52
2022-09-06T09:00:45.567Z,52.12
2022-09-06T09:01:45.558Z,52.12
2022-09-06T09:02:45.493Z,51.69
2022-09-06T09:03:45.489Z,51.79
2022-09-06T09:04:45.475Z,51.87
2022-09-06T09:05:45.456Z,51.27
2022-09-06T09:06:45.454Z,51.04
2022-09-06T09:07:45.433Z,50.74
2022-09-06T09:08:45.415Z,50.74
2022-09-06T09:09:45.421Z,50.84
2022-09-06T09:10:45.384Z,50.74
2022-09-06T09:11:45.394Z,50.22
2022-09-06T09:12:45.364Z,49.82
2022-09-06T09:13:45.356Z,50.12
2022-09-06T09:14:45.344Z,50.12
2022-09-06T09:15:45.376Z,50.12
2022-09-06T09:16:45.325Z,50.22
2022-09-06T09:17:45.305Z,49.99
2022-09-06T09:18:45.284Z,50.27
2022-09-06T09:19:45.285Z,49.74
2022-09-06T09:20:45.255Z,49.12
2022-09-06T09:21:45.256Z,48.70
2022-09-06T09:22:45.236Z,47.71
2022-09-06T09:23:45.226Z,47.68
2022-09-06T09:24:45.205Z,46.88
2022-09-06T09:25:45.195Z,46.28
2022-09-06T09:26:45.185Z,46.20
2022-09-06T09:27:45.166Z,46.70
2022-09-06T09:28:45.160Z,46.98
2022-09-06T09:31:46.316Z,46.09
2022-09-06T09:32:45.103Z,45.70
2022-09-06T09:33:45.093Z,44.88
2022-09-06T09:34:45.078Z,44.38
2022-09-06T09:35:45.065Z,44.18
2022-09-06T09:37:46.570Z,44.74
2022-09-06T09:38:45.016Z,44.52
2022-09-06T09:39:45.043Z,43.02
2022-09-06T09:40:44.987Z,42.43
2022-09-06T09:41:44.997Z,43.24
2022-09-06T09:42:44.966Z,42.94
2022-09-06T09:43:44.957Z,43.27
2022-09-06T09:44:44.942Z,43.57
2022-09-06T09:45:44.927Z,43.57
2022-09-06T09:46:45.117Z,43.19
2022-09-06T09:47:44.908Z,43.59
2022-09-06T09:48:44.886Z,42.69
2022-09-06T09:49:44.897Z,43.08
2022-09-06T09:50:44.858Z,43.59
2022-09-06T09:51:44.872Z,43.66
2022-09-06T09:52:44.839Z,43.35
2022-09-06T09:53:44.816Z,42.63
2022-09-06T09:54:44.821Z,42.31
2022-09-06T09:55:44.797Z,41.89
2022-09-06T09:56:44.796Z,41.60
2022-09-06T09:57:44.768Z,41.17
2022-09-06T09:58:44.768Z,40.98
2022-09-06T09:59:44.759Z,40.28
2022-09-06T10:00:44.753Z,40.88
2022-09-06T10:01:44.717Z,40.78
2022-09-06T10:02:44.698Z,40.68
2022-09-06T10:04:45.973Z,40.86
2022-09-06T10:05:44.659Z,40.34
2022-09-06T10:07:45.628Z,39.75
2022-09-06T10:08:44.695Z,40.05
2022-09-06T10:09:44.619Z,40.47
2022-09-06T10:10:44.599Z,40.56
2022-09-06T10:11:44.592Z,40.58
2022-09-06T10:12:44.569Z,40.78
2022-09-06T10:13:44.549Z,40.98
2022-09-06T10:14:44.550Z,41.17
2022-09-06T10:15:44.557Z,41.44
2022-09-06T10:16:44.529Z,41.33
2022-09-06T10:17:44.500Z,41.31
2022-09-06T10:18:44.495Z,40.72
2022-09-06T10:19:44.481Z,40.12
2022-09-06T10:20:44.460Z,40.12
2022-09-06T10:21:44.470Z,39.43
2022-09-06T10:22:44.437Z,39.71
2022-09-06T10:24:45.413Z,39.29
2022-09-06T10:25:46.343Z,38.78
2022-09-06T10:26:45.400Z,39.46
2022-09-06T10:27:55.660Z,39.46
2022-09-06T10:28:45.360Z,38.27
2022-09-06T10:29:44.353Z,39.24
2022-09-06T10:30:44.332Z,39.22
2022-09-06T10:31:44.604Z,37.94
2022-09-06T10:32:44.320Z,38.41
2022-09-06T10:33:44.292Z,37.82
2022-09-06T10:34:44.281Z,38.69
2022-09-06T10:35:44.272Z,37.41
2022-09-06T10:36:44.251Z,38.00
2022-09-06T10:37:44.249Z,37.13
2022-09-06T10:38:44.239Z,37.23
2022-09-06T10:39:44.303Z,37.94
2022-09-06T10:40:44.203Z,38.23
2022-09-06T10:41:44.191Z,38.63
2022-09-06T10:42:44.191Z,38.82
2022-09-06T10:43:44.162Z,38.75
2022-09-06T10:44:44.154Z,38.15
2022-09-06T10:45:44.132Z,38.25
2022-09-06T10:46:44.182Z,37.98
2022-09-06T10:47:44.124Z,38.47
2022-09-06T10:48:44.105Z,38.29
2022-09-06T10:49:44.095Z,37.99
2022-09-06T10:50:44.074Z,38.80
2022-09-06T10:51:44.063Z,38.60
2022-09-06T10:52:44.065Z,38.78
2022-09-06T10:53:44.033Z,38.88
2022-09-06T10:54:44.032Z,39.16
2022-09-06T10:55:47.831Z,39.06
2022-09-06T10:56:44.004Z,38.45
2022-09-06T10:59:45.333Z,38.07
2022-09-06T11:00:43.974Z,37.79
2022-09-06T11:01:44.025Z,38.29
2022-09-06T11:02:44.155Z,38.40
2022-09-06T11:04:04.147Z,38.70
2022-09-06T11:05:44.895Z,39.50
2022-09-06T11:06:43.875Z,39.69
2022-09-06T11:09:43.836Z,39.50
2022-09-06T11:10:43.958Z,39.29
2022-09-06T11:11:43.815Z,39.59
2022-09-06T11:12:43.799Z,39.99
2022-09-06T11:13:43.774Z,39.89
2022-09-06T11:14:43.796Z,40.09
2022-09-06T11:15:43.797Z,39.59
2022-09-06T11:16:43.746Z,39.50
2022-09-06T11:17:43.716Z,39.51
2022-09-06T11:18:43.715Z,39.91
2022-09-06T11:19:43.707Z,39.71
2022-09-06T11:20:43.689Z,39.91
2022-09-06T11:21:43.676Z,40.01
2022-09-06T11:22:43.657Z,40.31
2022-09-06T11:23:43.638Z,40.50
2022-09-06T11:24:43.627Z,40.70
2022-09-06T11:25:43.620Z,40.60
2022-09-06T11:26:43.617Z,40.31
2022-09-06T11:27:43.588Z,40.70
2022-09-06T11:28:43.586Z,40.41
2022-09-06T11:29:43.719Z,40.70
2022-09-06T11:30:43.594Z,40.70
2022-09-06T11:32:44.529Z,40.31
2022-09-06T11:33:43.519Z,40.70
2022-09-06T11:34:43.500Z,40.80
2022-09-06T11:35:43.488Z,40.48
2022-09-06T11:36:43.489Z,40.70
2022-09-06T11:37:43.646Z,40.90
2022-09-06T11:38:43.448Z,40.60
2022-09-06T11:40:44.428Z,40.90
2022-09-06T11:41:43.438Z,41.39
2022-09-06T11:42:43.399Z,41.49
2022-09-06T11:43:43.390Z,41.20
2022-09-06T11:44:43.378Z,41.20
2022-09-06T11:45:43.359Z,41.60
2022-09-06T11:46:43.392Z,41.20
2022-09-06T11:47:43.329Z,41.10
2022-09-06T11:48:43.320Z,41.20
2022-09-06T11:49:43.310Z,41.20
2022-09-06T11:50:43.299Z,41.39
2022-09-06T11:51:43.292Z,41.49
2022-09-06T11:52:43.269Z,41.39
2022-09-06T11:53:43.251Z,41.10
2022-09-06T11:54:43.241Z,40.90
2022-09-06T11:55:43.232Z,41.30
2022-09-06T11:56:43.229Z,41.39
2022-09-06T11:57:43.200Z,41.52
2022-09-06T11:58:43.192Z,41.49
2022-09-06T11:59:43.181Z,41.39
2022-09-06T12:00:43.171Z,41.41
2022-09-06T12:01:43.159Z,41.52
2022-09-06T12:02:43.306Z,41.61
2022-09-06T12:04:44.111Z,41.41
2022-09-06T12:05:43.103Z,41.81
2022-09-06T12:06:43.093Z,42.01
2022-09-06T12:07:43.072Z,41.91
2022-09-06T12:08:43.061Z,42.11
2022-09-06T12:09:43.052Z,42.29
2022-09-06T12:10:43.040Z,42.27
2022-09-06T12:11:43.011Z,41.87
2022-09-06T12:12:43.012Z,41.36
2022-09-06T12:13:43.002Z,41.24
2022-09-06T12:14:42.994Z,40.84
2022-09-06T12:15:42.996Z,41.04
2022-09-06T12:16:42.953Z,41.14
2022-09-06T12:17:43.028Z,40.94
2022-09-06T12:18:42.982Z,41.04
2022-09-06T12:19:44.554Z,41.14
2022-09-06T12:20:42.904Z,41.12
2022-09-06T12:21:42.892Z,40.53
2022-09-06T12:22:42.893Z,40.34
2022-09-06T12:23:42.866Z,40.64
2022-09-06T12:24:42.855Z,40.42
2022-09-06T12:25:42.844Z,40.53
2022-09-06T12:26:42.833Z,41.02
2022-09-06T12:27:42.826Z,40.41
2022-09-06T12:28:42.803Z,40.11
2022-09-06T12:29:42.796Z,40.01
2022-09-06T12:30:42.774Z,40.19
2022-09-06T12:31:42.806Z,40.19
2022-09-06T12:32:42.765Z,39.50
2022-09-06T12:33:42.746Z,39.79
2022-09-06T12:34:42.729Z,39.89
2022-09-06T12:35:58.361Z,40.09
2022-09-06T12:36:43.695Z,40.11
2022-09-06T12:37:42.696Z,40.11
2022-09-06T12:38:42.686Z,40.31
2022-09-06T12:39:42.741Z,40.11
2022-09-06T12:40:42.646Z,40.11
2022-09-06T12:41:43.670Z,39.99
2022-09-06T12:42:42.686Z,40.19
2022-09-06T12:43:42.596Z,39.89
2022-09-06T12:44:42.588Z,39.79
2022-09-06T12:45:42.577Z,39.30
2022-09-06T12:46:42.609Z,38.81
2022-09-06T12:47:42.607Z,39.32
2022-09-06T12:48:42.538Z,39.22
2022-09-06T12:49:42.528Z,39.52
2022-09-06T12:50:42.517Z,39.72
2022-09-06T12:51:42.498Z,39.72
2022-09-06T12:52:42.500Z,39.30
2022-09-06T12:53:42.468Z,39.40
2022-09-06T12:54:42.479Z,39.79
2022-09-06T12:55:42.470Z,39.70
2022-09-06T12:56:42.431Z,39.11
2022-09-06T12:57:42.428Z,38.81
2022-09-06T12:58:42.482Z,38.81
2022-09-06T12:59:42.429Z,39.20
2022-09-06T13:00:42.380Z,38.90
2022-09-06T13:01:42.492Z,39.11
2022-09-06T13:02:42.455Z,39.00
2022-09-06T13:03:42.339Z,39.48
2022-09-06T13:04:42.331Z,38.79
2022-09-06T13:05:42.318Z,38.69
2022-09-06T13:06:42.314Z,38.39
2022-09-06T13:07:42.301Z,38.59
2022-09-06T13:08:42.280Z,38.51
2022-09-06T13:09:42.271Z,38.81
2022-09-06T13:10:42.252Z,38.81
2022-09-06T13:11:42.241Z,38.98
2022-09-06T13:12:42.265Z,39.28
2022-09-06T13:13:42.211Z,39.18
2022-09-06T13:14:42.218Z,38.89
2022-09-06T13:15:42.251Z,39.18
2022-09-06T13:16:42.171Z,38.67
2022-09-06T13:17:42.172Z,38.67
2022-09-06T13:18:42.152Z,38.77